sensor_id;sensor_type;location;lat;lon;timestamp;pressure;altitude;pressure_sealevel;temperature;humidity
85386;BME280;75792;42.686;23.298;2024-01-16T10:31:30;94281.25;;;2.61;59.58
85386;BME280;75792;42.686;23.298;2024-01-16T10:33:56;94296.03;;;2.51;60.17
85386;BME280;75792;42.686;23.298;2024-01-16T10:36:24;94274.50;;;2.50;59.81
85386;BME280;75792;42.686;23.298;2024-01-16T10:38:50;94278.16;;;2.59;60.21
85386;BME280;75792;42.686;23.298;2024-01-16T10:41:23;94303.09;;;2.91;59.76
85386;BME280;75792;42.686;23.298;2024-01-16T10:44:03;94274.47;;;3.22;59.45
85386;BME280;75792;42.686;23.298;2024-01-16T10:46:29;94271.88;;;3.06;59.33
85386;BME280;75792;42.686;23.298;2024-01-16T10:49:02;94271.63;;;3.08;60.52
85386;BME280;75792;42.686;23.298;2024-01-16T10:51:29;94283.28;;;3.41;58.41
85386;BME280;75792;42.686;23.298;2024-01-16T10:54:05;94281.75;;;3.09;59.16
85386;BME280;75792;42.686;23.298;2024-01-16T10:56:31;94263.81;;;3.28;58.45
85386;BME280;75792;42.686;23.298;2024-01-16T11:01:33;94266.09;;;3.50;59.23
85386;BME280;75792;42.686;23.298;2024-01-16T11:04:00;94268.16;;;3.53;59.13
85386;BME280;75792;42.686;23.298;2024-01-16T11:06:26;94278.38;;;3.24;58.83
85386;BME280;75792;42.686;23.298;2024-01-16T11:08:52;94276.06;;;3.13;59.38
85386;BME280;75792;42.686;23.298;2024-01-16T11:11:19;94289.81;;;3.18;59.62
85386;BME280;75792;42.686;23.298;2024-01-16T11:13:46;94295.78;;;3.24;59.03
85386;BME280;75792;42.686;23.298;2024-01-16T11:16:12;94299.94;;;3.35;59.38
85386;BME280;75792;42.686;23.298;2024-01-16T11:18:37;94288.44;;;3.51;58.71
85386;BME280;75792;42.686;23.298;2024-01-16T11:21:11;94298.91;;;3.31;58.84
85386;BME280;75792;42.686;23.298;2024-01-16T11:23:37;94292.69;;;2.96;59.18
85386;BME280;75792;42.686;23.298;2024-01-16T11:28:46;94300.47;;;3.12;59.01
85386;BME280;75792;42.686;23.298;2024-01-16T11:31:28;94291.66;;;3.02;59.39
85386;BME280;75792;42.686;23.298;2024-01-16T11:33:53;94286.94;;;3.20;59.11
85386;BME280;75792;42.686;23.298;2024-01-16T11:36:42;94288.53;;;3.00;58.43
85386;BME280;75792;42.686;23.298;2024-01-16T11:39:10;94295.03;;;2.98;59.65
85386;BME280;75792;42.686;23.298;2024-01-16T11:41:56;94301.00;;;2.98;59.24
85386;BME280;75792;42.686;23.298;2024-01-16T11:44:40;94286.97;;;2.89;61.60
85386;BME280;75792;42.686;23.298;2024-01-16T11:47:15;94297.63;;;2.98;61.07
85386;BME280;75792;42.686;23.298;2024-01-16T11:49:41;94305.44;;;3.03;60.39
85386;BME280;75792;42.686;23.298;2024-01-16T11:52:06;94308.53;;;2.90;61.42
85386;BME280;75792;42.686;23.298;2024-01-16T11:54:33;94311.91;;;2.75;62.68
85386;BME280;75792;42.686;23.298;2024-01-16T12:00:00;94291.13;;;2.64;61.29
85386;BME280;75792;42.686;23.298;2024-01-16T12:05:12;94306.19;;;2.88;61.42
85386;BME280;75792;42.686;23.298;2024-01-16T12:07:48;94312.44;;;2.82;58.92
85386;BME280;75792;42.686;23.298;2024-01-16T12:10:21;94319.97;;;2.94;59.97
85386;BME280;75792;42.686;23.298;2024-01-16T12:12:48;94330.13;;;3.00;59.78
85386;BME280;75792;42.686;23.298;2024-01-16T12:15:18;94347.75;;;2.78;58.70
85386;BME280;75792;42.686;23.298;2024-01-16T12:20:19;94322.78;;;2.61;60.13
85386;BME280;75792;42.686;23.298;2024-01-16T12:22:55;94318.13;;;2.58;60.71
85386;BME280;75792;42.686;23.298;2024-01-16T12:25:21;94324.38;;;2.68;60.88
85386;BME280;75792;42.686;23.298;2024-01-16T12:28:00;94341.50;;;2.63;61.11
85386;BME280;75792;42.686;23.298;2024-01-16T12:30:30;94336.31;;;2.69;59.81
85386;BME280;75792;42.686;23.298;2024-01-16T12:35:37;94333.16;;;2.51;59.75
85386;BME280;75792;42.686;23.298;2024-01-16T12:38:04;94330.03;;;2.39;60.36
85386;BME280;75792;42.686;23.298;2024-01-16T12:40:39;94340.94;;;2.36;60.75
85386;BME280;75792;42.686;23.298;2024-01-16T12:43:06;94347.72;;;2.47;60.43
85386;BME280;75792;42.686;23.298;2024-01-16T12:45:32;94347.22;;;2.60;60.42
85386;BME280;75792;42.686;23.298;2024-01-16T12:47:59;94345.16;;;2.93;59.77
85386;BME280;75792;42.686;23.298;2024-01-16T12:50:27;94352.44;;;3.01;59.86
85386;BME280;75792;42.686;23.298;2024-01-16T12:53:07;94343.63;;;3.02;60.36
85386;BME280;75792;42.686;23.298;2024-01-16T12:55:34;94340.22;;;3.27;59.30
85386;BME280;75792;42.686;23.298;2024-01-16T12:58:16;94335.78;;;3.59;56.29
85386;BME280;75792;42.686;23.298;2024-01-16T13:00:46;94350.88;;;3.51;57.71
85386;BME280;75792;42.686;23.298;2024-01-16T13:03:20;94344.66;;;3.27;58.12
85386;BME280;75792;42.686;23.298;2024-01-16T13:05:57;94344.63;;;3.58;58.03
85386;BME280;75792;42.686;23.298;2024-01-16T13:08:23;94356.00;;;3.92;57.28
85386;BME280;75792;42.686;23.298;2024-01-16T13:11:08;94360.22;;;3.68;56.86
85386;BME280;75792;42.686;23.298;2024-01-16T13:13:35;94362.84;;;3.52;57.65
85386;BME280;75792;42.686;23.298;2024-01-16T13:16:03;94361.75;;;3.74;56.37
85386;BME280;75792;42.686;23.298;2024-01-16T13:18:31;94365.44;;;3.42;56.51
85386;BME280;75792;42.686;23.298;2024-01-16T13:20:57;94378.22;;;3.28;56.57
85386;BME280;75792;42.686;23.298;2024-01-16T13:23:24;94379.75;;;3.09;57.02
85386;BME280;75792;42.686;23.298;2024-01-16T13:25:53;94367.53;;;2.84;58.51
85386;BME280;75792;42.686;23.298;2024-01-16T13:28:21;94370.13;;;2.89;59.52
85386;BME280;75792;42.686;23.298;2024-01-16T13:30:48;94370.63;;;2.96;59.27
85386;BME280;75792;42.686;23.298;2024-01-16T13:33:14;94376.88;;;3.00;59.47
85386;BME280;75792;42.686;23.298;2024-01-16T13:35:41;94355.28;;;2.69;60.64
85386;BME280;75792;42.686;23.298;2024-01-16T13:38:08;94365.94;;;2.62;61.36
85386;BME280;75792;42.686;23.298;2024-01-16T13:40:36;94382.03;;;2.59;61.33
85386;BME280;75792;42.686;23.298;2024-01-16T13:43:05;94370.53;;;2.45;61.96
85386;BME280;75792;42.686;23.298;2024-01-16T13:45:31;94385.59;;;2.48;61.74
85386;BME280;75792;42.686;23.298;2024-01-16T13:47:57;94391.34;;;2.55;61.79
85386;BME280;75792;42.686;23.298;2024-01-16T13:50:23;94383.53;;;2.45;61.53
85386;BME280;75792;42.686;23.298;2024-01-16T13:52:49;94380.66;;;2.41;61.25
85386;BME280;75792;42.686;23.298;2024-01-16T13:55:15;94366.44;;;2.59;60.25
85386;BME280;75792;42.686;23.298;2024-01-16T13:57:41;94370.66;;;3.06;59.59
85386;BME280;75792;42.686;23.298;2024-01-16T14:00:08;94385.19;;;3.43;56.68
85386;BME280;75792;42.686;23.298;2024-01-16T14:02:43;94391.94;;;2.93;58.58
85386;BME280;75792;42.686;23.298;2024-01-16T14:05:09;94388.56;;;4.50;54.29
85386;BME280;75792;42.686;23.298;2024-01-16T14:07:41;94391.59;;;5.51;50.91
85386;BME280;75792;42.686;23.298;2024-01-16T14:10:09;94379.28;;;5.86;48.29
85386;BME280;75792;42.686;23.298;2024-01-16T14:12:37;94395.03;;;5.76;47.05
85386;BME280;75792;42.686;23.298;2024-01-16T14:15:03;94411.19;;;3.74;52.29
85386;BME280;75792;42.686;23.298;2024-01-16T14:17:42;94395.06;;;2.95;55.65
85386;BME280;75792;42.686;23.298;2024-01-16T14:20:09;94419.81;;;2.35;58.46
85386;BME280;75792;42.686;23.298;2024-01-16T14:22:36;94411.03;;;2.41;58.85
85386;BME280;75792;42.686;23.298;2024-01-16T14:25:03;94413.66;;;2.46;58.34
85386;BME280;75792;42.686;23.298;2024-01-16T14:27:45;94424.94;;;2.19;59.33
85386;BME280;75792;42.686;23.298;2024-01-16T14:30:12;94426.47;;;2.10;60.24
85386;BME280;75792;42.686;23.298;2024-01-16T14:32:40;94424.47;;;2.23;59.33
85386;BME280;75792;42.686;23.298;2024-01-16T14:35:10;94426.56;;;2.31;59.41
85386;BME280;75792;42.686;23.298;2024-01-16T14:37:36;94425.50;;;2.27;59.22
85386;BME280;75792;42.686;23.298;2024-01-16T14:40:03;94434.81;;;2.17;59.88
85386;BME280;75792;42.686;23.298;2024-01-16T14:42:32;94412.63;;;1.94;60.30
85386;BME280;75792;42.686;23.298;2024-01-16T14:44:59;94422.84;;;2.11;60.81
85386;BME280;75792;42.686;23.298;2024-01-16T14:47:24;94427.00;;;2.12;61.15
85386;BME280;75792;42.686;23.298;2024-01-16T14:49:50;94436.28;;;2.03;61.54
85386;BME280;75792;42.686;23.298;2024-01-16T14:52:15;94428.41;;;1.88;62.74
85386;BME280;75792;42.686;23.298;2024-01-16T14:54:42;94427.13;;;1.90;62.58
85386;BME280;75792;42.686;23.298;2024-01-16T14:57:07;94422.19;;;1.84;63.29
85386;BME280;75792;42.686;23.298;2024-01-16T14:59:33;94435.94;;;1.89;63.03
85386;BME280;75792;42.686;23.298;2024-01-16T15:01:58;94445.03;;;1.92;63.13
85386;BME280;75792;42.686;23.298;2024-01-16T15:04:24;94457.97;;;1.87;63.53
85386;BME280;75792;42.686;23.298;2024-01-16T15:06:49;94465.75;;;1.87;63.60
85386;BME280;75792;42.686;23.298;2024-01-16T15:09:18;94445.69;;;1.72;63.59
85386;BME280;75792;42.686;23.298;2024-01-16T15:11:43;94449.84;;;1.73;64.19
85386;BME280;75792;42.686;23.298;2024-01-16T15:14:11;94463.13;;;1.82;64.87
85386;BME280;75792;42.686;23.298;2024-01-16T15:16:36;94459.50;;;1.78;64.33
85386;BME280;75792;42.686;23.298;2024-01-16T15:19:02;94467.00;;;1.79;64.79
85386;BME280;75792;42.686;23.298;2024-01-16T15:21:27;94469.88;;;1.78;64.51
85386;BME280;75792;42.686;23.298;2024-01-16T15:23:52;94467.50;;;1.76;64.90
85386;BME280;75792;42.686;23.298;2024-01-16T15:26:18;94463.09;;;1.76;65.21
85386;BME280;75792;42.686;23.298;2024-01-16T15:28:46;94466.81;;;1.86;64.72
85386;BME280;75792;42.686;23.298;2024-01-16T15:31:11;94472.53;;;1.93;64.66
85386;BME280;75792;42.686;23.298;2024-01-16T15:33:38;94480.28;;;1.88;64.73
85386;BME280;75792;42.686;23.298;2024-01-16T15:36:04;94483.84;;;1.76;64.54
85386;BME280;75792;42.686;23.298;2024-01-16T15:38:29;94491.59;;;1.71;64.93
85386;BME280;75792;42.686;23.298;2024-01-16T15:40:55;94493.59;;;1.59;65.57
85386;BME280;75792;42.686;23.298;2024-01-16T15:43:20;94493.78;;;1.52;65.92
85386;BME280;75792;42.686;23.298;2024-01-16T15:45:46;94485.63;;;1.39;66.21
85386;BME280;75792;42.686;23.298;2024-01-16T15:48:11;94492.31;;;1.35;65.98
85386;BME280;75792;42.686;23.298;2024-01-16T15:50:37;94487.63;;;1.31;66.45
85386;BME280;75792;42.686;23.298;2024-01-16T15:53:04;94489.66;;;1.29;67.20
85386;BME280;75792;42.686;23.298;2024-01-16T15:55:30;94499.16;;;1.19;67.06
85386;BME280;75792;42.686;23.298;2024-01-16T15:57:56;94490.56;;;1.13;67.18
85386;BME280;75792;42.686;23.298;2024-01-16T16:00:21;94499.06;;;1.08;68.04
85386;BME280;75792;42.686;23.298;2024-01-16T16:02:49;94504.44;;;1.02;68.97
85386;BME280;75792;42.686;23.298;2024-01-16T16:05:14;94496.84;;;0.95;68.35
85386;BME280;75792;42.686;23.298;2024-01-16T16:07:40;94496.91;;;1.00;67.51
85386;BME280;75792;42.686;23.298;2024-01-16T16:10:06;94504.81;;;0.88;67.78
85386;BME280;75792;42.686;23.298;2024-01-16T16:12:31;94501.69;;;0.86;68.15
85386;BME280;75792;42.686;23.298;2024-01-16T16:14:57;94508.44;;;0.87;68.19
85386;BME280;75792;42.686;23.298;2024-01-16T16:17:22;94503.72;;;0.84;67.21
85386;BME280;75792;42.686;23.298;2024-01-16T16:19:48;94505.69;;;0.72;68.91
85386;BME280;75792;42.686;23.298;2024-01-16T16:22:15;94508.97;;;0.68;69.13
85386;BME280;75792;42.686;23.298;2024-01-16T16:24:43;94502.47;;;0.65;69.32
85386;BME280;75792;42.686;23.298;2024-01-16T16:27:25;94495.19;;;0.62;69.70
85386;BME280;75792;42.686;23.298;2024-01-16T16:29:54;94505.91;;;0.49;70.03
85386;BME280;75792;42.686;23.298;2024-01-16T16:32:19;94514.16;;;0.46;70.57
85386;BME280;75792;42.686;23.298;2024-01-16T16:34:46;94515.78;;;0.52;70.64
85386;BME280;75792;42.686;23.298;2024-01-16T16:37:11;94516.13;;;0.38;70.09
85386;BME280;75792;42.686;23.298;2024-01-16T16:39:37;94516.75;;;0.46;70.46
85386;BME280;75792;42.686;23.298;2024-01-16T16:42:02;94524.56;;;0.51;70.99
85386;BME280;75792;42.686;23.298;2024-01-16T16:44:27;94513.97;;;0.52;70.03
85386;BME280;75792;42.686;23.298;2024-01-16T16:46:53;94518.13;;;0.53;69.33
85386;BME280;75792;42.686;23.298;2024-01-16T16:49:18;94518.91;;;0.54;68.46
85386;BME280;75792;42.686;23.298;2024-01-16T16:51:44;94511.22;;;0.59;69.60
85386;BME280;75792;42.686;23.298;2024-01-16T16:54:10;94518.44;;;0.57;69.14
85386;BME280;75792;42.686;23.298;2024-01-16T16:56:36;94525.16;;;0.58;68.86
85386;BME280;75792;42.686;23.298;2024-01-16T16:59:02;94522.06;;;0.56;68.61
85386;BME280;75792;42.686;23.298;2024-01-16T17:01:28;94513.75;;;0.54;68.97
85386;BME280;75792;42.686;23.298;2024-01-16T17:03:53;94522.50;;;0.53;69.49
85386;BME280;75792;42.686;23.298;2024-01-16T17:06:18;94524.09;;;0.54;69.30
85386;BME280;75792;42.686;23.298;2024-01-16T17:08:44;94527.22;;;0.56;68.53
85386;BME280;75792;42.686;23.298;2024-01-16T17:11:11;94531.06;;;0.53;69.33
85386;BME280;75792;42.686;23.298;2024-01-16T17:13:41;94526.75;;;0.59;68.67
85386;BME280;75792;42.686;23.298;2024-01-16T17:16:08;94520.47;;;0.55;69.26
85386;BME280;75792;42.686;23.298;2024-01-16T17:18:35;94525.91;;;0.53;68.70
85386;BME280;75792;42.686;23.298;2024-01-16T17:21:04;94527.38;;;0.49;68.74
85386;BME280;75792;42.686;23.298;2024-01-16T17:23:29;94532.41;;;0.56;68.58
85386;BME280;75792;42.686;23.298;2024-01-16T17:25:55;94533.19;;;0.56;68.48
85386;BME280;75792;42.686;23.298;2024-01-16T17:28:23;94524.88;;;0.54;67.89
85386;BME280;75792;42.686;23.298;2024-01-16T17:30:50;94527.47;;;0.54;68.78
85386;BME280;75792;42.686;23.298;2024-01-16T17:33:16;94530.81;;;0.55;68.16
85386;BME280;75792;42.686;23.298;2024-01-16T17:35:41;94532.41;;;0.56;68.47
85386;BME280;75792;42.686;23.298;2024-01-16T17:38:07;94529.13;;;0.43;68.81
85386;BME280;75792;42.686;23.298;2024-01-16T17:40:34;94529.75;;;0.51;69.11
85386;BME280;75792;42.686;23.298;2024-01-16T17:42:59;94538.66;;;0.60;68.95
85386;BME280;75792;42.686;23.298;2024-01-16T17:45:26;94543.91;;;0.65;67.46
85386;BME280;75792;42.686;23.298;2024-01-16T17:47:52;94545.72;;;0.64;67.52
85386;BME280;75792;42.686;23.298;2024-01-16T17:50:17;94542.88;;;0.66;68.14
85386;BME280;75792;42.686;23.298;2024-01-16T17:52:43;94542.34;;;0.64;68.78
85386;BME280;75792;42.686;23.298;2024-01-16T17:55:08;94549.13;;;0.70;67.78
85386;BME280;75792;42.686;23.298;2024-01-16T17:57:34;94545.50;;;0.71;67.12
85386;BME280;75792;42.686;23.298;2024-01-16T18:00:01;94544.50;;;0.72;66.70
85386;BME280;75792;42.686;23.298;2024-01-16T18:02:30;94550.69;;;0.71;66.82
85386;BME280;75792;42.686;23.298;2024-01-16T18:04:55;94560.28;;;0.71;66.94
85386;BME280;75792;42.686;23.298;2024-01-16T18:07:20;94559.19;;;0.67;66.50
85386;BME280;75792;42.686;23.298;2024-01-16T18:09:46;94542.81;;;0.61;66.82
85386;BME280;75792;42.686;23.298;2024-01-16T18:12:11;94549.38;;;0.69;66.46
85386;BME280;75792;42.686;23.298;2024-01-16T18:14:37;94543.97;;;0.70;65.43
85386;BME280;75792;42.686;23.298;2024-01-16T18:17:07;94543.97;;;0.70;65.90
85386;BME280;75792;42.686;23.298;2024-01-16T18:19:34;94554.03;;;0.67;66.75
85386;BME280;75792;42.686;23.298;2024-01-16T18:22:01;94538.66;;;0.60;67.59
85386;BME280;75792;42.686;23.298;2024-01-16T18:24:27;94550.09;;;0.64;67.09
85386;BME280;75792;42.686;23.298;2024-01-16T18:26:53;94538.16;;;0.63;69.33
85386;BME280;75792;42.686;23.298;2024-01-16T18:29:18;94549.06;;;0.65;66.83
85386;BME280;75792;42.686;23.298;2024-01-16T18:31:47;94557.94;;;0.69;66.84
85386;BME280;75792;42.686;23.298;2024-01-16T18:34:13;94557.94;;;0.69;67.25
85386;BME280;75792;42.686;23.298;2024-01-16T18:36:51;94546.00;;;0.68;67.14
85386;BME280;75792;42.686;23.298;2024-01-16T18:39:17;94545.94;;;0.63;66.60
85386;BME280;75792;42.686;23.298;2024-01-16T18:41:45;94551.72;;;0.70;66.26
85386;BME280;75792;42.686;23.298;2024-01-16T18:44:13;94555.09;;;0.71;66.54
85386;BME280;75792;42.686;23.298;2024-01-16T18:46:39;94543.97;;;0.70;67.86
85386;BME280;75792;42.686;23.298;2024-01-16T18:49:05;94553.84;;;0.73;65.80
85386;BME280;75792;42.686;23.298;2024-01-16T18:51:31;94556.41;;;0.73;67.37
85386;BME280;75792;42.686;23.298;2024-01-16T18:53:56;94566.22;;;0.71;68.16
85386;BME280;75792;42.686;23.298;2024-01-16T18:56:21;94565.16;;;0.67;66.73
85386;BME280;75792;42.686;23.298;2024-01-16T18:58:47;94578.31;;;0.65;67.80
85386;BME280;75792;42.686;23.298;2024-01-16T19:01:12;94577.56;;;0.65;68.53
85386;BME280;75792;42.686;23.298;2024-01-16T19:03:38;94580.63;;;0.62;67.99
85386;BME280;75792;42.686;23.298;2024-01-16T19:06:07;94578.44;;;0.54;69.72
85386;BME280;75792;42.686;23.298;2024-01-16T19:08:39;94581.97;;;0.48;70.19
85386;BME280;75792;42.686;23.298;2024-01-16T19:11:07;94577.69;;;0.36;69.56
85386;BME280;75792;42.686;23.298;2024-01-16T19:13:32;94586.47;;;0.35;71.56
85386;BME280;75792;42.686;23.298;2024-01-16T19:15:59;94573.41;;;0.08;72.26
85386;BME280;75792;42.686;23.298;2024-01-16T19:18:26;94578.72;;;0.02;73.73
85386;BME280;75792;42.686;23.298;2024-01-16T19:20:51;94584.38;;;-0.02;73.74
85386;BME280;75792;42.686;23.298;2024-01-16T19:23:17;94577.94;;;0.01;73.49
85386;BME280;75792;42.686;23.298;2024-01-16T19:25:43;94572.91;;;-0.06;73.87
85386;BME280;75792;42.686;23.298;2024-01-16T19:28:08;94578.63;;;-0.04;73.41
85386;BME280;75792;42.686;23.298;2024-01-16T19:30:34;94561.50;;;-0.10;72.63
85386;BME280;75792;42.686;23.298;2024-01-16T19:32:59;94576.53;;;-0.07;74.46
85386;BME280;75792;42.686;23.298;2024-01-16T19:35:24;94578.16;;;-0.01;74.17
85386;BME280;75792;42.686;23.298;2024-01-16T19:37:50;94573.81;;;0.00;73.68
85386;BME280;75792;42.686;23.298;2024-01-16T19:40:15;94588.28;;;0.01;73.38
85386;BME280;75792;42.686;23.298;2024-01-16T19:42:43;94580.28;;;0.03;73.88
85386;BME280;75792;42.686;23.298;2024-01-16T19:45:09;94582.34;;;0.01;74.31
85386;BME280;75792;42.686;23.298;2024-01-16T19:47:35;94575.09;;;0.03;74.85
85386;BME280;75792;42.686;23.298;2024-01-16T19:50:01;94574.19;;;0.09;73.81
85386;BME280;75792;42.686;23.298;2024-01-16T19:52:33;94578.41;;;0.15;74.49
85386;BME280;75792;42.686;23.298;2024-01-16T19:55:00;94580.06;;;0.04;74.44
85386;BME280;75792;42.686;23.298;2024-01-16T19:57:31;94576.22;;;0.07;75.62
85386;BME280;75792;42.686;23.298;2024-01-16T19:59:57;94584.69;;;0.19;75.38
85386;BME280;75792;42.686;23.298;2024-01-16T20:02:23;94585.22;;;0.21;75.09
85386;BME280;75792;42.686;23.298;2024-01-16T20:04:49;94589.22;;;0.29;75.34
85386;BME280;75792;42.686;23.298;2024-01-16T20:07:14;94593.13;;;0.31;74.62
85386;BME280;75792;42.686;23.298;2024-01-16T20:09:40;94591.56;;;0.30;74.16
85386;BME280;75792;42.686;23.298;2024-01-16T20:12:05;94585.44;;;0.36;74.89
85386;BME280;75792;42.686;23.298;2024-01-16T20:14:31;94592.97;;;0.38;74.55
85386;BME280;75792;42.686;23.298;2024-01-16T20:16:59;94593.75;;;0.38;73.90
85386;BME280;75792;42.686;23.298;2024-01-16T20:19:25;94598.31;;;0.31;74.39
85386;BME280;75792;42.686;23.298;2024-01-16T20:21:50;94602.94;;;0.29;74.88
85386;BME280;75792;42.686;23.298;2024-01-16T20:24:16;94605.97;;;0.26;74.39
85386;BME280;75792;42.686;23.298;2024-01-16T20:26:43;94605.38;;;0.19;75.64
85386;BME280;75792;42.686;23.298;2024-01-16T20:29:08;94605.69;;;0.06;75.83
85386;BME280;75792;42.686;23.298;2024-01-16T20:31:35;94600.97;;;0.03;75.60
85386;BME280;75792;42.686;23.298;2024-01-16T20:34:01;94602.06;;;0.07;74.85
85386;BME280;75792;42.686;23.298;2024-01-16T20:36:27;94611.09;;;0.21;75.19
85386;BME280;75792;42.686;23.298;2024-01-16T20:38:52;94614.63;;;0.15;75.84
85386;BME280;75792;42.686;23.298;2024-01-16T20:41:17;94619.41;;;0.06;75.73
85386;BME280;75792;42.686;23.298;2024-01-16T20:43:43;94618.72;;;0.11;75.79
85386;BME280;75792;42.686;23.298;2024-01-16T20:46:09;94627.16;;;0.06;75.95
85386;BME280;75792;42.686;23.298;2024-01-16T20:48:34;94636.31;;;-0.03;76.00
85386;BME280;75792;42.686;23.298;2024-01-16T20:51:01;94641.41;;;-0.08;75.15
85386;BME280;75792;42.686;23.298;2024-01-16T20:53:27;94623.38;;;-0.20;76.08
85386;BME280;75792;42.686;23.298;2024-01-16T20:55:54;94632.78;;;-0.14;76.52
85386;BME280;75792;42.686;23.298;2024-01-16T20:58:20;94641.47;;;-0.20;76.22
85386;BME280;75792;42.686;23.298;2024-01-16T21:00:46;94645.59;;;-0.19;76.63
85386;BME280;75792;42.686;23.298;2024-01-16T21:03:13;94660.31;;;-0.08;75.86
85386;BME280;75792;42.686;23.298;2024-01-16T21:05:43;94656.91;;;-0.08;76.10
85386;BME280;75792;42.686;23.298;2024-01-16T21:08:09;94652.38;;;-0.18;75.94
85386;BME280;75792;42.686;23.298;2024-01-16T21:10:39;94657.53;;;-0.18;75.43
85386;BME280;75792;42.686;23.298;2024-01-16T21:13:05;94665.19;;;-0.23;76.04
85386;BME280;75792;42.686;23.298;2024-01-16T21:15:30;94651.78;;;-0.37;76.96
85386;BME280;75792;42.686;23.298;2024-01-16T21:18:00;94670.19;;;-0.33;75.22
85386;BME280;75792;42.686;23.298;2024-01-16T21:20:25;94670.13;;;-0.50;76.01
85386;BME280;75792;42.686;23.298;2024-01-16T21:22:51;94676.22;;;-0.56;77.02
85386;BME280;75792;42.686;23.298;2024-01-16T21:25:19;94680.13;;;-0.54;78.11
85386;BME280;75792;42.686;23.298;2024-01-16T21:27:47;94685.31;;;-0.54;78.41
85386;BME280;75792;42.686;23.298;2024-01-16T21:30:13;94688.91;;;-0.55;76.25
85386;BME280;75792;42.686;23.298;2024-01-16T21:32:38;94685.75;;;-0.57;77.06
85386;BME280;75792;42.686;23.298;2024-01-16T21:35:04;94684.53;;;-0.54;76.86
85386;BME280;75792;42.686;23.298;2024-01-16T21:37:32;94687.09;;;-0.54;76.60
85386;BME280;75792;42.686;23.298;2024-01-16T21:39:57;94688.91;;;-0.55;75.99
85386;BME280;75792;42.686;23.298;2024-01-16T21:42:22;94688.91;;;-0.55;76.41
85386;BME280;75792;42.686;23.298;2024-01-16T21:44:48;94685.41;;;-0.49;75.70
85386;BME280;75792;42.686;23.298;2024-01-16T21:47:17;94679.22;;;-0.48;77.40
85386;BME280;75792;42.686;23.298;2024-01-16T21:49:46;94678.78;;;-0.45;76.81
85386;BME280;75792;42.686;23.298;2024-01-16T21:52:11;94677.16;;;-0.34;76.93
85386;BME280;75792;42.686;23.298;2024-01-16T21:54:37;94678.03;;;-0.28;76.03
85386;BME280;75792;42.686;23.298;2024-01-16T21:57:02;94676.63;;;-0.19;74.91
85386;BME280;75792;42.686;23.298;2024-01-16T21:59:28;94673.03;;;-0.18;75.33
85386;BME280;75792;42.686;23.298;2024-01-16T22:01:53;94671.72;;;-0.20;74.79
85386;BME280;75792;42.686;23.298;2024-01-16T22:04:18;94666.25;;;-0.36;74.61
85386;BME280;75792;42.686;23.298;2024-01-16T22:06:44;94665.28;;;-0.47;75.37
85386;BME280;75792;42.686;23.298;2024-01-16T22:09:09;94661.16;;;-0.48;75.77
85386;BME280;75792;42.686;23.298;2024-01-16T22:11:40;94663.16;;;-0.50;75.35
85386;BME280;75792;42.686;23.298;2024-01-16T22:14:05;94654.28;;;-0.54;76.48
85386;BME280;75792;42.686;23.298;2024-01-16T22:16:33;94663.25;;;-0.45;75.61
85386;BME280;75792;42.686;23.298;2024-01-16T22:18:58;94655.50;;;-0.45;75.64
85386;BME280;75792;42.686;23.298;2024-01-16T22:21:26;94649.59;;;-0.57;75.41
85386;BME280;75792;42.686;23.298;2024-01-16T22:23:51;94644.56;;;-0.63;76.60
85386;BME280;75792;42.686;23.298;2024-01-16T22:26:17;94648.28;;;-0.71;76.68
85386;BME280;75792;42.686;23.298;2024-01-16T22:28:42;94649.19;;;-0.77;77.35
85386;BME280;75792;42.686;23.298;2024-01-16T22:31:10;94655.59;;;-0.68;76.64
85386;BME280;75792;42.686;23.298;2024-01-16T22:33:36;94650.41;;;-0.68;78.24
85386;BME280;75792;42.686;23.298;2024-01-16T22:36:02;94641.53;;;-0.72;77.56
85386;BME280;75792;42.686;23.298;2024-01-16T22:38:29;94628.06;;;-0.74;76.96
85386;BME280;75792;42.686;23.298;2024-01-16T22:40:55;94638.28;;;-0.68;77.90
85386;BME280;75792;42.686;23.298;2024-01-16T22:43:21;94630.03;;;-0.53;77.31
85386;BME280;75792;42.686;23.298;2024-01-16T22:45:46;94634.94;;;-0.39;76.19
85386;BME280;75792;42.686;23.298;2024-01-16T22:48:13;94624.44;;;-0.33;76.66
85386;BME280;75792;42.686;23.298;2024-01-16T22:50:40;94613.50;;;-0.52;76.98
85386;BME280;75792;42.686;23.298;2024-01-16T22:53:06;94619.94;;;-0.37;75.94
85386;BME280;75792;42.686;23.298;2024-01-16T22:55:32;94621.44;;;-0.41;76.38
85386;BME280;75792;42.686;23.298;2024-01-16T22:57:59;94618.13;;;-0.54;77.18
85386;BME280;75792;42.686;23.298;2024-01-16T23:00:25;94615.44;;;-0.59;78.68
85386;BME280;75792;42.686;23.298;2024-01-16T23:02:53;94620.41;;;-0.69;78.73
85386;BME280;75792;42.686;23.298;2024-01-16T23:05:19;94614.63;;;-0.76;78.60
85386;BME280;75792;42.686;23.298;2024-01-16T23:07:46;94606.50;;;-0.68;79.19
85386;BME280;75792;42.686;23.298;2024-01-16T23:10:15;94610.53;;;-0.72;78.73
85386;BME280;75792;42.686;23.298;2024-01-16T23:12:41;94585.47;;;-0.89;80.17
85386;BME280;75792;42.686;23.298;2024-01-16T23:15:08;94609.91;;;-0.79;79.13
85386;BME280;75792;42.686;23.298;2024-01-16T23:17:36;94612.25;;;-0.78;80.49
85386;BME280;75792;42.686;23.298;2024-01-16T23:20:01;94603.25;;;-0.75;79.94
85386;BME280;75792;42.686;23.298;2024-01-16T23:22:26;94601.25;;;-0.73;80.09
85386;BME280;75792;42.686;23.298;2024-01-16T23:24:53;94606.63;;;-0.75;79.16
85386;BME280;75792;42.686;23.298;2024-01-16T23:27:18;94602.44;;;-0.64;79.08
85386;BME280;75792;42.686;23.298;2024-01-16T23:29:43;94616.75;;;-0.73;79.08
85386;BME280;75792;42.686;23.298;2024-01-16T23:32:09;94619.97;;;-0.66;79.48
85386;BME280;75792;42.686;23.298;2024-01-16T23:34:34;94617.31;;;-0.71;78.42
85386;BME280;75792;42.686;23.298;2024-01-16T23:37:02;94613.78;;;-0.65;78.25
85386;BME280;75792;42.686;23.298;2024-01-16T23:39:28;94622.00;;;-0.68;78.02
85386;BME280;75792;42.686;23.298;2024-01-16T23:41:55;94618.75;;;-0.75;78.32
85386;BME280;75792;42.686;23.298;2024-01-16T23:44:22;94619.13;;;-0.83;79.18